Zhongchuan Airport
ZLLL : now visible

Airfield :











YOU CAN JOIN US ON...

 
LOGIN :

Register | Disclaimer

   EN    FR    IT 

 









Legend :    VFR   Marginal VFR   IFR   Intensive IFR   Very Intensive IFR
Visi :
Ceiling :
>= 8 km
>= 3000ft
5 to 8 km
1000 to 3000 ft
1500m to 5 km
500 to 1000 ft
800 to 1500m
200 to 500 ft
< 800m
< 200 ft
Symbols :   Thunderstorms  Fog  Heavy snow  Heavy precipitations  Wind > 20 kt






- Airport Elevation : 6388 ft
- IATA code : ZGC


ZLLL - Zhongchuan

CURRENT METAR :
  • 191200Z VRB01MPS 8000 NSC M00/M10 Q1025 NOSIG

EXPIRED METARs :
  • 191100Z VRB01MPS CAVOK 02/M12 Q1024 NOSIG
  • 191000Z 10001MPS CAVOK 03/M09 Q1023 NOSIG

TAF TAF ZLLL
Valid from the 19 at 12:00 until the 20 at 12:00 UTC


190904Z 1912/2012 33003MPS 6000 SCT040 TX06/2008Z TNM10/23Z
TEMPO 1913/1917 4000 -SN



MET'MAP, your aeronautical weather chart ! - Copyright ORBIFLY December 2007 - Disclaimer

ORBIFLY MET'MAP TEAM :

Programming & Development : Alexandra Zaïnal
Concept & Development : Baudouin d'Aumeries
Co-Development & Prog : Marc-Olivier Méhu
Technical & hardware support : Manuel Goepfert

Contact : metmap@orbifly.com




SOURCES & CREDITS :

   NOAA       Earth
Advisory